Time;durP1;ratioP1;P1;durP2;ratioP2;P2;SDS_P1;SDS_P2;PMS_P1;PMS_P2;Temp;Humidity;BMP_temperature;BMP_pressure;BME280_temperature;BME280_humidity;BME280_pressure;Samples;Min_cycle;Max_cycle;Signal;HPM_P1;HPM_P2
2022/11/14 00:00:22;;;;;;;26.42;11.07;;;5.30;99.90;;;;;;5072036;28;20103;-76
2022/11/14 00:02:47;;;;;;;;;;;5.40;99.90;;;;;;5074702;28;20131;-76
2022/11/14 00:05:13;;;;;;;33.83;14.85;;;5.30;99.90;;;;;;5055895;28;19904;-77
2022/11/14 00:07:38;;;;;;;;;;;5.30;99.90;;;;;;5056512;28;20028;-76
2022/11/14 00:10:05;;;;;;;24.58;12.80;;;5.20;99.90;;;;;;5055678;28;19916;-77
2022/11/14 00:12:30;;;;;;;23.90;13.10;;;5.20;99.90;;;;;;5074067;28;20031;-76
2022/11/14 00:14:56;;;;;;;;;;;5.20;99.90;;;;;;5057478;28;20037;-77
2022/11/14 00:17:21;;;;;;;31.33;12.73;;;5.20;99.90;;;;;;5057653;28;19909;-77
2022/11/14 00:19:47;;;;;;;;;;;5.20;99.90;;;;;;5072605;28;20020;-76
2022/11/14 00:22:12;;;;;;;27.80;16.13;;;5.10;99.90;;;;;;5052463;28;20335;-76
2022/11/14 00:24:38;;;;;;;;;;;5.10;99.90;;;;;;5052033;28;20071;-77
2022/11/14 00:27:03;;;;;;;32.17;18.10;;;5.00;99.90;;;;;;5052242;28;20285;-76
2022/11/14 00:29:29;;;;;;;;;;;5.00;99.90;;;;;;5052546;28;20171;-77
2022/11/14 00:31:55;;;;;;;29.05;16.83;;;5.00;99.90;;;;;;5070054;28;19923;-77
2022/11/14 00:34:20;;;;;;;;;;;5.00;99.90;;;;;;5069779;28;20074;-77
2022/11/14 00:36:46;;;;;;;33.30;17.55;;;5.00;99.90;;;;;;5069883;28;19978;-77
2022/11/14 00:39:12;;;;;;;;;;;5.00;99.90;;;;;;5052311;28;20029;-77
2022/11/14 00:41:38;;;;;;;50.40;19.65;;;5.00;99.90;;;;;;5070307;28;19908;-76
2022/11/14 00:44:04;;;;;;;52.70;23.27;;;5.10;99.90;;;;;;5069174;28;20060;-76
2022/11/14 00:46:29;;;;;;;;;;;5.10;99.90;;;;;;5052261;28;20064;-77
2022/11/14 00:48:55;;;;;;;42.38;21.70;;;5.00;99.90;;;;;;5051422;28;20037;-76
2022/11/14 00:51:20;;;;;;;;;;;5.10;99.90;;;;;;5070549;28;20040;-77
2022/11/14 00:53:46;;;;;;;57.33;26.35;;;5.10;99.90;;;;;;5051452;28;20422;-77
2022/11/14 00:56:11;;;;;;;;;;;5.00;99.90;;;;;;5070335;28;20510;-77
2022/11/14 00:58:37;;;;;;;96.78;46.17;;;5.00;99.90;;;;;;5051750;28;19908;-77
2022/11/14 01:01:03;;;;;;;;;;;4.90;99.90;;;;;;5052502;28;20554;-77
2022/11/14 01:03:28;;;;;;;90.10;39.72;;;5.00;99.90;;;;;;5069727;28;19908;-76
2022/11/14 01:05:54;;;;;;;;;;;4.90;99.90;;;;;;5069861;28;20032;-77
2022/11/14 01:08:20;;;;;;;47.88;23.15;;;4.90;99.90;;;;;;5051681;28;19919;-77
2022/11/14 01:10:46;;;;;;;;;;;4.90;99.90;;;;;;5049713;28;20036;-77
2022/11/14 01:13:13;;;;;;;43.15;21.10;;;4.90;99.90;;;;;;5051993;28;19912;-77
2022/11/14 01:15:44;;;;;;;39.28;18.58;;;4.90;99.90;;;;;;5051981;28;20569;-77
2022/11/14 01:18:11;;;;;;;33.75;17.05;;;4.90;99.90;;;;;;5069949;28;20115;-76
2022/11/14 01:20:39;;;;;;;35.92;17.48;;;5.00;99.90;;;;;;5069648;28;20028;-77
2022/11/14 01:23:05;;;;;;;29.75;15.27;;;4.90;99.90;;;;;;5051957;28;20024;-77
2022/11/14 01:25:34;;;;;;;;;;;4.90;99.90;;;;;;5051823;28;20028;-77
2022/11/14 01:28:00;;;;;;;23.40;11.60;;;5.00;99.90;;;;;;5051253;28;19962;-77
2022/11/14 01:30:25;;;;;;;;;;;5.00;99.90;;;;;;5069998;28;20497;-75
2022/11/14 01:32:51;;;;;;;20.52;10.70;;;4.90;99.90;;;;;;5069370;28;20415;-78
2022/11/14 01:35:16;;;;;;;;;;;4.90;99.90;;;;;;5052552;28;20028;-76
2022/11/14 01:37:42;;;;;;;20.75;9.38;;;4.90;99.90;;;;;;5069879;28;19912;-77
2022/11/14 01:40:08;;;;;;;;;;;4.90;99.90;;;;;;5052358;28;20102;-78
2022/11/14 01:42:34;;;;;;;27.30;9.07;;;4.90;99.90;;;;;;5051144;28;20254;-77
2022/11/14 01:44:59;;;;;;;;;;;5.00;99.90;;;;;;5070769;28;20032;-76
2022/11/14 01:47:28;;;;;;;26.60;13.80;;;4.90;99.90;;;;;;5052666;28;19909;-77
2022/11/14 01:49:58;;;;;;;26.35;15.07;;;4.90;99.90;;;;;;5051726;28;20036;-77
2022/11/14 01:52:39;;;;;;;27.27;14.57;;;5.00;99.90;;;;;;5070268;28;20024;-77
2022/11/14 01:55:07;;;;;;;28.42;15.15;;;5.00;99.90;;;;;;5069306;28;20044;-77
2022/11/14 01:57:39;;;;;;;35.83;16.00;;;4.90;99.90;;;;;;5052089;28;20028;-76
2022/11/14 02:00:08;;;;;;;34.45;15.30;;;4.90;99.90;;;;;;5052342;28;20102;-78
2022/11/14 02:02:35;;;;;;;29.85;16.23;;;4.90;99.90;;;;;;5069647;28;20119;-77
2022/11/14 02:05:10;;;;;;;29.45;16.50;;;4.90;99.90;;;;;;5052542;28;20710;-77
2022/11/14 02:07:38;;;;;;;25.55;15.15;;;4.80;99.90;;;;;;5053470;28;20503;-77
2022/11/14 02:10:07;;;;;;;29.67;16.05;;;4.90;99.90;;;;;;5051559;28;20056;-76
2022/11/14 02:12:33;;;;;;;29.85;17.00;;;4.80;99.90;;;;;;5052114;28;20141;-76
2022/11/14 02:15:00;;;;;;;47.50;22.77;;;4.80;99.90;;;;;;5052726;28;20027;-76
2022/11/14 02:17:26;;;;;;;34.88;18.20;;;4.80;99.90;;;;;;5053644;28;20075;-76
2022/11/14 02:19:54;;;;;;;;;;;4.80;99.90;;;;;;5053112;28;20052;-77
2022/11/14 02:22:20;;;;;;;30.83;16.70;;;4.80;99.90;;;;;;5052482;28;19915;-77
2022/11/14 02:24:45;;;;;;;;;;;4.70;99.90;;;;;;5053401;28;20032;-76
2022/11/14 02:27:12;;;;;;;32.33;17.35;;;4.60;99.90;;;;;;5071072;28;19920;-77
2022/11/14 02:29:38;;;;;;;35.97;19.85;;;4.60;99.90;;;;;;5071834;28;20044;-77
2022/11/14 02:32:04;;;;;;;;;;;4.50;99.90;;;;;;5054834;28;20032;-77
2022/11/14 02:34:30;;;;;;;40.33;23.00;;;4.50;99.90;;;;;;5070499;28;19905;-76
2022/11/14 02:36:56;;;;;;;;;;;4.50;99.90;;;;;;5054892;28;20033;-77
2022/11/14 02:39:22;;;;;;;127.07;28.45;;;4.40;99.90;;;;;;5054518;28;19904;-77
2022/11/14 02:41:50;;;;;;;168.35;29.20;;;4.30;99.90;;;;;;5051153;28;20024;-77
2022/11/14 02:44:16;;;;;;;156.70;23.67;;;4.20;99.90;;;;;;5068302;28;20029;-76
2022/11/14 02:46:41;;;;;;;;;;;4.10;99.90;;;;;;5050513;28;20082;-77
2022/11/14 02:49:07;;;;;;;381.17;31.15;;;4.00;99.90;;;;;;5049385;28;20319;-76
2022/11/14 02:51:32;;;;;;;;;;;3.90;99.90;;;;;;5050380;28;20040;-77
2022/11/14 02:53:58;;;;;;;235.30;30.80;;;3.90;99.90;;;;;;5048993;28;20316;-76
2022/11/14 02:56:23;;;;;;;;;;;3.80;99.90;;;;;;5068152;28;20024;-76
2022/11/14 02:58:49;;;;;;;311.58;30.05;;;3.80;99.90;;;;;;5049881;28;20410;-77
2022/11/14 03:01:14;;;;;;;;;;;3.80;99.90;;;;;;5051504;28;20127;-76
2022/11/14 03:03:40;;;;;;;160.82;24.90;;;3.70;99.90;;;;;;5049652;28;19909;-76
2022/11/14 03:06:05;;;;;;;;;;;3.60;99.90;;;;;;5068697;28;20024;-76
2022/11/14 03:08:31;;;;;;;75.65;19.02;;;3.60;99.90;;;;;;5050344;28;19909;-77
2022/11/14 03:11:02;;;;;;;;;;;3.50;99.90;;;;;;5050546;28;20412;-77
2022/11/14 03:13:29;;;;;;;44.28;21.08;;;3.40;99.90;;;;;;5069625;28;19916;-77
2022/11/14 03:15:55;;;;;;;32.60;21.83;;;3.40;99.90;;;;;;5068733;28;20025;-77
2022/11/14 03:18:20;;;;;;;35.45;24.75;;;3.30;99.90;;;;;;5051060;28;20078;-78
2022/11/14 03:20:46;;;;;;;;;;;3.30;99.90;;;;;;5069690;28;20036;-76
2022/11/14 03:23:12;;;;;;;38.17;23.83;;;3.30;99.90;;;;;;5050155;28;19959;-76
2022/11/14 03:25:37;;;;;;;;;;;3.30;99.90;;;;;;5068539;28;20021;-76
2022/11/14 03:28:03;;;;;;;36.72;22.52;;;3.30;99.90;;;;;;5068670;28;19920;-77
2022/11/14 03:30:30;;;;;;;;;;;3.30;99.90;;;;;;5050235;28;20048;-77
2022/11/14 03:32:56;;;;;;;39.17;22.52;;;3.30;99.90;;;;;;5068391;28;20404;-77
2022/11/14 03:35:21;;;;;;;;;;;3.30;99.90;;;;;;5068244;28;20100;-78
2022/11/14 03:37:47;;;;;;;31.83;18.83;;;3.30;99.90;;;;;;5049584;28;20342;-77
2022/11/14 03:40:12;;;;;;;;;;;3.30;99.90;;;;;;5051066;28;20033;-77
2022/11/14 03:42:38;;;;;;;39.25;20.73;;;3.30;99.90;;;;;;5050208;28;20434;-76
2022/11/14 03:45:04;;;;;;;;;;;3.40;99.90;;;;;;5050222;28;20578;-77
2022/11/14 03:47:29;;;;;;;40.85;22.13;;;3.40;99.90;;;;;;5067305;28;20346;-77
2022/11/14 03:49:55;;;;;;;;;;;3.50;99.90;;;;;;5068917;28;20874;-77
2022/11/14 03:52:20;;;;;;;34.75;19.75;;;3.40;99.90;;;;;;5050477;28;19927;-77
2022/11/14 03:54:46;;;;;;;;;;;3.50;99.90;;;;;;5050626;28;20127;-77
2022/11/14 03:57:11;;;;;;;42.35;22.52;;;3.50;99.90;;;;;;5050154;28;19913;-76
2022/11/14 03:59:37;;;;;;;;;;;3.60;99.90;;;;;;5068950;28;20063;-77
2022/11/14 04:02:02;;;;;;;60.40;30.85;;;3.70;99.90;;;;;;5050524;28;19915;-76
2022/11/14 04:04:28;;;;;;;;;;;3.80;99.90;;;;;;5050183;28;20088;-77
2022/11/14 04:06:54;;;;;;;39.20;18.38;;;3.90;99.90;;;;;;5049974;28;19958;-77
2022/11/14 04:09:19;;;;;;;;;;;4.00;99.90;;;;;;5067891;28;20036;-77
2022/11/14 04:11:45;;;;;;;34.00;17.65;;;4.10;99.90;;;;;;5068130;28;19957;-77
2022/11/14 04:14:10;;;;;;;;;;;4.10;99.90;;;;;;5067850;28;20421;-77
2022/11/14 04:16:36;;;;;;;27.10;16.15;;;4.10;99.90;;;;;;5066957;28;19957;-76
2022/11/14 04:19:01;;;;;;;;;;;4.10;99.90;;;;;;5049366;28;20085;-76
2022/11/14 04:21:27;;;;;;;28.73;16.63;;;4.10;99.90;;;;;;5066133;28;20326;-77
2022/11/14 04:23:52;;;;;;;;;;;4.20;99.90;;;;;;5049260;28;20032;-77
2022/11/14 04:26:18;;;;;;;33.15;17.08;;;4.20;99.90;;;;;;5048280;28;19916;-76
2022/11/14 04:28:43;;;;;;;;;;;4.20;99.90;;;;;;5066746;28;20044;-77
2022/11/14 04:31:09;;;;;;;35.25;19.02;;;4.20;99.90;;;;;;5048269;28;19995;-77
2022/11/14 04:33:35;;;;;;;;;;;4.30;99.90;;;;;;5067767;28;20031;-77
2022/11/14 04:36:00;;;;;;;24.67;14.48;;;4.30;99.90;;;;;;5067249;28;20094;-76
2022/11/14 04:38:26;;;;;;;;;;;4.40;99.90;;;;;;5066066;28;20029;-77
2022/11/14 04:40:52;;;;;;;20.30;11.05;;;4.40;99.90;;;;;;5047909;28;19912;-76
2022/11/14 04:43:19;;;;;;;17.65;10.77;;;4.50;99.90;;;;;;5048915;28;20044;-76
2022/11/14 04:45:45;;;;;;;25.40;11.10;;;4.50;99.90;;;;;;5050021;28;20028;-76
2022/11/14 04:48:10;;;;;;;;;;;4.50;99.90;;;;;;5054370;28;20473;-76
2022/11/14 04:50:36;;;;;;;21.95;12.38;;;4.50;99.90;;;;;;5053645;28;19927;-76
2022/11/14 04:53:01;;;;;;;;;;;4.60;99.90;;;;;;5054489;28;20024;-76
2022/11/14 04:55:27;;;;;;;26.10;15.27;;;4.70;99.90;;;;;;5072083;28;20485;-76
2022/11/14 04:57:54;;;;;;;;;;;4.60;99.90;;;;;;5055926;28;20123;-78
2022/11/14 05:00:20;;;;;;;25.60;14.25;;;4.60;99.90;;;;;;5073677;28;19908;-76
2022/11/14 05:02:46;;;;;;;;;;;4.60;99.90;;;;;;5069465;28;20036;-76
2022/11/14 05:05:12;;;;;;;15.63;9.00;;;4.60;99.90;;;;;;5069521;28;19909;-77
2022/11/14 05:07:37;;;;;;;;;;;4.60;99.90;;;;;;5052043;28;20461;-76
2022/11/14 05:10:03;;;;;;;15.68;7.95;;;4.60;99.90;;;;;;5049950;28;19913;-77
2022/11/14 05:12:29;;;;;;;18.45;9.80;;;4.60;99.90;;;;;;5031518;28;20036;-76
2022/11/14 05:14:54;;;;;;;;;;;4.60;99.90;;;;;;5031922;28;20480;-77
2022/11/14 05:17:20;;;;;;;36.00;18.90;;;4.50;99.90;;;;;;5049645;28;20384;-77
2022/11/14 05:19:45;;;;;;;;;;;4.60;99.90;;;;;;5049624;28;20074;-77
2022/11/14 05:22:11;;;;;;;28.35;14.68;;;4.40;99.90;;;;;;5068933;28;19904;-77
2022/11/14 05:24:36;;;;;;;;;;;4.50;99.90;;;;;;5051497;28;20029;-77
2022/11/14 05:27:02;;;;;;;24.77;14.07;;;4.60;99.90;;;;;;5068144;28;19944;-77
2022/11/14 05:29:28;;;;;;;;;;;4.60;99.90;;;;;;5051880;28;20496;-77
2022/11/14 05:31:53;;;;;;;20.13;10.65;;;4.70;99.90;;;;;;5051424;28;20045;-77
2022/11/14 05:34:19;;;;;;;;;;;4.50;99.90;;;;;;5051550;28;20024;-77
2022/11/14 05:36:44;;;;;;;19.10;10.63;;;4.60;99.90;;;;;;5068376;28;19912;-77
2022/11/14 05:39:10;;;;;;;;;;;4.60;99.90;;;;;;5069871;28;20027;-77
2022/11/14 05:41:35;;;;;;;27.88;15.65;;;4.60;99.90;;;;;;5051168;28;19913;-76
2022/11/14 05:44:02;;;;;;;;;;;4.60;99.90;;;;;;5051872;28;20123;-77
2022/11/14 05:46:28;;;;;;;30.73;15.15;;;4.70;99.90;;;;;;5067872;28;19950;-77
2022/11/14 05:48:54;;;;;;;;;;;4.80;99.90;;;;;;5052680;28;20024;-77
2022/11/14 05:51:19;;;;;;;38.15;19.20;;;4.90;99.90;;;;;;5070841;28;20435;-77
2022/11/14 05:53:45;;;;;;;;;;;5.00;99.90;;;;;;5071248;28;20051;-77
2022/11/14 05:56:11;;;;;;;45.83;22.17;;;5.10;99.90;;;;;;5054052;28;19947;-76
2022/11/14 05:58:37;;;;;;;44.80;24.38;;;5.30;99.90;;;;;;5050759;28;20021;-77
2022/11/14 06:01:12;;;;;;;39.28;23.15;;;5.30;99.90;;;;;;5050482;28;20101;-77
2022/11/14 06:03:40;;;;;;;39.78;23.33;;;5.40;99.90;;;;;;5050087;28;20481;-76
2022/11/14 06:06:07;;;;;;;52.63;25.83;;;5.60;99.90;;;;;;5068261;28;20036;-76
2022/11/14 06:08:34;;;;;;;46.72;27.20;;;5.60;99.90;;;;;;5049924;28;20028;-77
2022/11/14 06:11:12;;;;;;;45.22;24.15;;;5.60;99.90;;;;;;5050604;28;20494;-77
2022/11/14 06:13:37;;;;;;;39.92;23.52;;;5.80;99.90;;;;;;5050581;28;20040;-77
2022/11/14 06:16:08;;;;;;;;;;;5.80;99.90;;;;;;5051085;28;20083;-77
2022/11/14 06:18:34;;;;;;;34.85;19.52;;;5.90;99.90;;;;;;5050383;28;19908;-77
2022/11/14 06:21:04;;;;;;;;;;;5.90;99.90;;;;;;5050592;28;20028;-77
2022/11/14 06:23:30;;;;;;;29.23;15.02;;;5.90;99.90;;;;;;5050453;28;20233;-77
2022/11/14 06:26:00;;;;;;;;;;;5.80;99.90;;;;;;5050366;28;20144;-77
2022/11/14 06:28:25;;;;;;;29.52;15.48;;;5.90;99.90;;;;;;5050741;28;19920;-77
2022/11/14 06:30:51;;;;;;;;;;;6.00;99.90;;;;;;5069680;28;20037;-77
2022/11/14 06:33:16;;;;;;;23.30;13.73;;;6.30;99.90;;;;;;5050954;28;19912;-78
2022/11/14 06:35:42;;;;;;;;;;;6.50;99.90;;;;;;5068723;28;20614;-76
2022/11/14 06:38:07;;;;;;;24.25;12.50;;;6.80;99.90;;;;;;5051247;28;19923;-78
2022/11/14 06:40:33;;;;;;;;;;;7.00;99.90;;;;;;5051539;28;20485;-77
2022/11/14 06:42:58;;;;;;;27.38;12.15;;;7.20;99.90;;;;;;5051666;28;19999;-77
2022/11/14 06:45:24;;;;;;;;;;;7.40;99.90;;;;;;5069652;28;20496;-77
2022/11/14 06:47:49;;;;;;;31.75;16.25;;;7.60;99.90;;;;;;5050555;28;20361;-77
2022/11/14 06:50:15;;;;;;;;;;;7.80;99.90;;;;;;5049752;28;20039;-77
2022/11/14 06:52:40;;;;;;;37.55;17.23;;;8.10;99.90;;;;;;5067934;28;19908;-77
2022/11/14 06:55:06;;;;;;;;;;;8.30;99.90;;;;;;5050109;28;20423;-78
2022/11/14 06:57:32;;;;;;;32.08;18.90;;;8.60;99.90;;;;;;5068403;28;19948;-77
2022/11/14 06:59:58;;;;;;;;;;;9.00;99.90;;;;;;5068523;28;20059;-77
2022/11/14 07:02:23;;;;;;;21.98;11.35;;;9.20;99.90;;;;;;5049698;28;19908;-77
2022/11/14 07:04:49;;;;;;;;;;;9.40;99.90;;;;;;5068443;28;20036;-77
2022/11/14 07:07:14;;;;;;;20.67;13.73;;;9.50;99.90;;;;;;5049657;28;19915;-77
2022/11/14 07:09:40;;;;;;;;;;;9.60;99.90;;;;;;5050047;28;20025;-77
2022/11/14 07:12:07;;;;;;;22.73;12.90;;;9.70;99.90;;;;;;5066847;28;19908;-77
2022/11/14 07:14:33;;;;;;;26.92;13.38;;;10.00;99.90;;;;;;5048019;28;20404;-77
2022/11/14 07:16:59;;;;;;;;;;;10.30;99.90;;;;;;5048909;28;20029;-77
2022/11/14 07:19:25;;;;;;;32.03;18.33;;;10.60;99.90;;;;;;5048836;28;19923;-77
2022/11/14 07:21:50;;;;;;;;;;;10.80;99.90;;;;;;5065892;28;20048;-77
2022/11/14 07:24:16;;;;;;;31.20;19.73;;;10.90;99.90;;;;;;5048709;28;19962;-76
2022/11/14 07:26:41;;;;;;;;;;;10.90;99.90;;;;;;5048330;28;20046;-76
2022/11/14 07:29:07;;;;;;;31.10;21.83;;;10.90;99.90;;;;;;5047718;28;20381;-77
2022/11/14 07:31:32;;;;;;;;;;;11.10;99.90;;;;;;5047954;28;20029;-78
2022/11/14 07:33:58;;;;;;;38.75;23.65;;;11.30;99.90;;;;;;5065969;28;19916;-78
2022/11/14 07:36:23;;;;;;;;;;;11.40;99.90;;;;;;5048376;28;20029;-77
2022/11/14 07:38:49;;;;;;;35.03;22.67;;;11.50;99.90;;;;;;5065703;28;19916;-77
2022/11/14 07:41:15;;;;;;;;;;;11.60;99.90;;;;;;5048944;28;20043;-78
2022/11/14 07:43:41;;;;;;;52.85;34.00;;;11.70;99.90;;;;;;5047844;28;19908;-77
2022/11/14 07:46:12;;;;;;;40.72;22.05;;;11.70;99.90;;;;;;5065472;28;20040;-77
2022/11/14 07:48:38;;;;;;;31.40;22.10;;;11.90;99.90;;;;;;5065555;28;20033;-78
2022/11/14 07:51:04;;;;;;;;;;;12.00;99.90;;;;;;5048176;28;20036;-78
2022/11/14 07:53:30;;;;;;;33.10;21.10;;;12.20;99.90;;;;;;5047550;28;20526;-77
2022/11/14 07:56:00;;;;;;;29.70;20.73;;;12.40;99.90;;;;;;5047770;28;20085;-78
2022/11/14 07:58:26;;;;;;;27.85;20.55;;;12.40;99.90;;;;;;5066173;28;20115;-78
2022/11/14 08:00:51;;;;;;;;;;;12.50;99.90;;;;;;5066339;28;20108;-78
2022/11/14 08:03:17;;;;;;;28.15;18.70;;;12.60;99.90;;;;;;5065632;28;20386;-77
2022/11/14 08:05:43;;;;;;;29.27;19.10;;;12.70;99.90;;;;;;5047589;28;20063;-77
2022/11/14 08:08:08;;;;;;;24.55;17.48;;;12.80;99.90;;;;;;5047971;28;20025;-74
2022/11/14 08:10:34;;;;;;;;;;;13.10;99.90;;;;;;5047872;28;20591;-78
2022/11/14 08:13:02;;;;;;;31.95;18.58;;;13.40;99.90;;;;;;5048151;28;20095;-77
2022/11/14 08:15:28;;;;;;;26.45;18.45;;;13.70;99.90;;;;;;5047681;28;20024;-77
2022/11/14 08:18:00;;;;;;;29.65;20.00;;;14.10;99.90;;;;;;5065481;28;20036;-77
2022/11/14 08:20:27;;;;;;;24.80;17.42;;;14.50;99.90;;;;;;5048580;28;20038;-77
2022/11/14 08:22:59;;;;;;;19.27;13.57;;;14.90;99.90;;;;;;5069552;28;20024;-77
2022/11/14 08:25:25;;;;;;;21.88;13.75;;;15.40;99.90;;;;;;5069446;28;20059;-77
2022/11/14 08:27:52;;;;;;;22.75;12.73;;;15.80;99.90;;;;;;5050966;28;20079;-76
2022/11/14 08:30:18;;;;;;;24.52;14.38;;;16.10;99.90;;;;;;5069182;28;20041;-77
2022/11/14 08:32:43;;;;;;;16.45;12.05;;;16.40;99.90;;;;;;5051600;28;20078;-77
2022/11/14 08:35:09;;;;;;;20.45;14.63;;;16.80;99.90;;;;;;5050798;28;20028;-76
2022/11/14 08:37:34;;;;;;;22.17;13.25;;;16.70;99.90;;;;;;5069233;28;20043;-77
2022/11/14 08:40:00;;;;;;;21.13;14.10;;;16.90;99.90;;;;;;5069240;28;20064;-77
2022/11/14 08:42:26;;;;;;;20.60;12.95;;;16.90;99.90;;;;;;5051257;28;20849;-77
2022/11/14 08:44:51;;;;;;;20.95;15.00;;;16.90;99.90;;;;;;5069015;28;20542;-77
2022/11/14 08:47:17;;;;;;;27.00;14.57;;;17.00;99.90;;;;;;5051976;28;20028;-76
2022/11/14 08:49:42;;;;;;;19.65;14.95;;;17.10;99.90;;;;;;5050759;28;20620;-77
2022/11/14 08:52:08;;;;;;;23.92;15.38;;;17.10;99.90;;;;;;5050832;28;20021;-77
2022/11/14 08:54:34;;;;;;;23.67;16.48;;;17.10;99.90;;;;;;5050677;28;20374;-77
2022/11/14 08:56:59;;;;;;;25.33;19.23;;;17.10;99.90;;;;;;5051307;28;20032;-75
2022/11/14 08:59:25;;;;;;;26.48;16.95;;;17.00;99.90;;;;;;5051587;28;20105;-75
2022/11/14 09:01:51;;;;;;;25.05;17.13;;;16.70;99.90;;;;;;5050299;28;20404;-75
2022/11/14 09:04:16;;;;;;;25.52;18.45;;;16.40;99.90;;;;;;5051041;28;20048;-74
2022/11/14 09:06:42;;;;;;;30.60;18.33;;;16.10;99.90;;;;;;5068566;28;20056;-77
2022/11/14 09:09:07;;;;;;;34.63;22.27;;;15.70;99.90;;;;;;5068499;28;20032;-78
2022/11/14 09:11:33;;;;;;;34.65;21.65;;;15.10;99.90;;;;;;5068849;28;20036;-76
2022/11/14 09:14:00;;;;;;;32.00;19.95;;;14.70;99.90;;;;;;5050222;28;20021;-77
2022/11/14 09:16:25;;;;;;;35.38;20.40;;;14.30;99.90;;;;;;5069074;28;20146;-77
2022/11/14 09:18:51;;;;;;;25.98;16.92;;;14.30;99.90;;;;;;5067783;28;20119;-76
2022/11/14 09:21:17;;;;;;;23.90;13.98;;;14.10;99.90;;;;;;5051079;28;20484;-77
2022/11/14 09:23:45;;;;;;;22.08;15.13;;;14.00;99.90;;;;;;5050397;28;20564;-77
2022/11/14 09:26:10;;;;;;;27.13;18.27;;;13.80;99.90;;;;;;5050393;28;20033;-77
2022/11/14 09:28:36;;;;;;;23.02;14.93;;;13.70;99.90;;;;;;5050394;28;20140;-78
2022/11/14 09:31:04;;;;;;;21.58;14.60;;;13.70;99.90;;;;;;5050225;28;20059;-77
2022/11/14 09:33:29;;;;;;;25.65;17.77;;;13.40;99.90;;;;;;5048862;28;20838;-77
2022/11/14 09:35:59;;;;;;;;;;;13.40;99.90;;;;;;5050675;28;20036;-79
2022/11/14 09:38:25;;;;;;;25.35;18.67;;;13.40;99.90;;;;;;5068219;28;20689;-75
2022/11/14 09:40:54;;;;;;;;;;;13.50;99.90;;;;;;5051193;28;20032;-77
2022/11/14 09:43:45;;;;;;;31.58;21.38;;;13.50;99.90;;;;;;5050425;28;19915;-77
2022/11/14 09:46:21;;;;;;;28.98;20.05;;;13.50;99.90;;;;;;5068456;28;20024;-77
2022/11/14 09:48:47;;;;;;;30.25;20.33;;;13.60;99.90;;;;;;5067531;28;20044;-76
2022/11/14 09:51:22;;;;;;;33.10;21.65;;;13.60;99.90;;;;;;5050273;28;20040;-77
2022/11/14 09:53:59;;;;;;;35.90;21.73;;;13.60;99.90;;;;;;5049588;28;20032;-76
2022/11/14 09:56:25;;;;;;;33.35;19.27;;;13.60;99.90;;;;;;5050385;28;20046;-76
2022/11/14 09:58:53;;;;;;;31.10;19.13;;;13.70;99.90;;;;;;5068430;28;20138;-74
2022/11/14 10:01:39;;;;;;;33.72;21.33;;;13.70;99.90;;;;;;5050169;28;20071;-75
2022/11/14 10:04:22;;;;;;;27.15;19.05;;;13.70;99.90;;;;;;5049647;28;20029;-76
2022/11/14 10:06:51;;;;;;;33.35;19.50;;;13.60;99.90;;;;;;5049398;28;20029;-77
2022/11/14 10:09:36;;;;;;;29.90;20.00;;;13.60;99.90;;;;;;5067501;28;20079;-78
2022/11/14 10:12:17;;;;;;;24.63;17.55;;;13.70;99.90;;;;;;5049500;28;20040;-76
2022/11/14 10:14:52;;;;;;;29.17;17.58;;;13.60;99.90;;;;;;5067307;28;20025;-78
2022/11/14 10:17:36;;;;;;;29.60;18.10;;;13.70;99.90;;;;;;5067707;28;20032;-77
2022/11/14 10:20:33;;;;;;;28.58;17.55;;;13.60;99.90;;;;;;5067050;28;20086;-78
2022/11/14 10:23:31;;;;;;;31.80;17.42;;;13.70;99.90;;;;;;5066361;28;20388;-78
2022/11/14 10:26:13;;;;;;;28.67;17.55;;;13.70;99.90;;;;;;5048369;28;20048;-77
2022/11/14 10:28:51;;;;;;;32.42;18.45;;;13.70;99.90;;;;;;5049137;28;20054;-78
2022/11/14 10:31:22;;;;;;;29.35;18.70;;;13.70;99.90;;;;;;5048906;28;20064;-76
2022/11/14 10:34:07;;;;;;;25.88;17.98;;;13.60;99.90;;;;;;5048551;28;20024;-79
2022/11/14 10:36:45;;;;;;;25.13;15.80;;;13.60;99.90;;;;;;5048892;28;20123;-77
2022/11/14 10:39:39;;;;;;;27.55;18.52;;;13.70;99.90;;;;;;5048852;28;20366;-78
2022/11/14 10:42:30;;;;;;;28.23;17.63;;;13.60;99.90;;;;;;5066915;28;20032;-77
2022/11/14 10:45:07;;;;;;;28.77;18.30;;;13.60;99.90;;;;;;5066162;28;20071;-78
2022/11/14 10:47:56;;;;;;;32.05;17.67;;;13.60;99.90;;;;;;5048315;28;20413;-77
2022/11/14 10:50:27;;;;;;;28.80;17.13;;;13.60;99.90;;;;;;5048787;28;20131;-79
2022/11/14 10:52:59;;;;;;;28.83;17.90;;;13.50;99.90;;;;;;5049320;28;20040;-77
2022/11/14 10:55:26;;;;;;;32.28;17.85;;;13.50;99.90;;;;;;5048841;28;20055;-77
2022/11/14 10:57:51;;;;;;;28.83;17.30;;;13.40;99.90;;;;;;5048400;28;20020;-78
2022/11/14 11:00:18;;;;;;;;;;;13.40;99.90;;;;;;5067251;28;20032;-77
2022/11/14 11:02:50;;;;;;;24.45;15.57;;;13.40;99.90;;;;;;5048349;28;19947;-78
2022/11/14 11:05:18;;;;;;;30.85;17.75;;;13.40;99.90;;;;;;5049161;28;20066;-80
2022/11/14 11:13:30;;;;;;;25.30;16.10;;;13.40;99.90;;;;;;5066859;28;20039;-77
2022/11/14 11:15:58;;;;;;;26.73;15.85;;;13.50;99.90;;;;;;5066361;28;20020;-78
2022/11/14 11:18:26;;;;;;;25.13;15.55;;;13.50;99.90;;;;;;5066114;28;20033;-79
2022/11/14 11:21:10;;;;;;;24.73;16.13;;;13.50;99.90;;;;;;5066264;28;20031;-78
2022/11/14 11:23:53;;;;;;;22.25;14.40;;;13.50;99.90;;;;;;5066458;28;20146;-77
2022/11/14 11:26:23;;;;;;;26.77;14.82;;;13.50;99.90;;;;;;5048472;28;20516;-77
2022/11/14 11:29:09;;;;;;;25.75;14.75;;;13.60;99.90;;;;;;5047815;28;20088;-78
2022/11/14 11:31:55;;;;;;;26.15;14.60;;;13.60;99.90;;;;;;5048549;28;20097;-78
2022/11/14 11:34:31;;;;;;;32.45;17.15;;;13.50;99.90;;;;;;5066279;28;20670;-78
2022/11/14 11:37:20;;;;;;;23.38;15.05;;;13.50;99.90;;;;;;5066280;28;20024;-77
2022/11/14 11:39:53;;;;;;;21.70;14.77;;;13.50;99.90;;;;;;5047937;28;20024;-77
2022/11/14 11:42:44;;;;;;;22.58;13.60;;;13.50;99.90;;;;;;5048167;28;20028;-78
2022/11/14 11:45:16;;;;;;;25.73;14.43;;;13.40;99.90;;;;;;5067852;28;20067;-77
2022/11/14 11:47:47;;;;;;;24.48;14.23;;;13.40;99.90;;;;;;5047505;28;20382;-78
2022/11/14 11:50:19;;;;;;;25.08;15.88;;;13.50;99.90;;;;;;5048266;28;20037;-77
2022/11/14 11:53:02;;;;;;;24.42;14.30;;;13.40;99.90;;;;;;5047820;28;20033;-77
2022/11/14 11:55:40;;;;;;;24.52;13.77;;;13.40;99.90;;;;;;5065571;28;20052;-77
2022/11/14 11:58:17;;;;;;;19.80;13.70;;;13.40;99.90;;;;;;5065828;28;20028;-77
2022/11/14 12:00:42;;;;;;;23.35;13.43;;;13.40;99.90;;;;;;5065890;28;20838;-78
2022/11/14 12:03:11;;;;;;;;;;;13.40;99.90;;;;;;5047531;28;20111;-77
2022/11/14 12:05:44;;;;;;;17.85;11.82;;;13.40;99.90;;;;;;5066129;28;19919;-75
2022/11/14 12:08:34;;;;;;;35.60;18.75;;;13.50;99.90;;;;;;5047782;28;20021;-77
2022/11/14 12:11:03;;;;;;;52.75;27.92;;;13.50;99.90;;;;;;5048126;28;20123;-77
2022/11/14 12:14:03;;;;;;;28.08;18.00;;;13.50;99.90;;;;;;5065445;28;20827;-78
2022/11/14 12:17:02;;;;;;;22.75;14.10;;;13.50;99.90;;;;;;5047499;28;20523;-76
2022/11/14 12:19:36;;;;;;;19.52;13.80;;;13.50;99.90;;;;;;5047305;28;20028;-78
2022/11/14 12:22:23;;;;;;;22.08;13.50;;;13.50;99.90;;;;;;5065889;28;20029;-77
2022/11/14 12:25:01;;;;;;;20.88;13.18;;;13.40;99.90;;;;;;5065821;28;20025;-78
2022/11/14 12:27:38;;;;;;;20.50;12.55;;;13.50;99.90;;;;;;5065247;28;20048;-78
2022/11/14 12:30:22;;;;;;;20.10;11.23;;;13.40;99.90;;;;;;5047697;28;20037;-77
2022/11/14 12:33:10;;;;;;;20.58;12.20;;;13.40;99.90;;;;;;5046962;28;20111;-77
2022/11/14 12:35:45;;;;;;;22.35;13.70;;;13.40;99.90;;;;;;5047149;28;20058;-77
2022/11/14 12:38:18;;;;;;;24.10;13.60;;;13.40;99.90;;;;;;5065965;28;20056;-77
2022/11/14 12:40:53;;;;;;;20.27;13.20;;;13.40;99.90;;;;;;5065759;28;20050;-79
2022/11/14 12:43:40;;;;;;;18.10;11.83;;;13.40;99.90;;;;;;5046915;28;20550;-78
2022/11/14 12:46:11;;;;;;;21.38;13.88;;;13.40;99.90;;;;;;5047490;28;20500;-77
2022/11/14 12:48:41;;;;;;;22.83;14.93;;;13.40;99.90;;;;;;5046928;28;20406;-77
2022/11/14 12:51:26;;;;;;;20.27;13.38;;;13.30;99.90;;;;;;5046995;28;20492;-77
2022/11/14 12:53:56;;;;;;;20.60;13.90;;;13.40;99.90;;;;;;5047161;28;20031;-78
2022/11/14 12:56:27;;;;;;;20.90;14.30;;;13.40;99.90;;;;;;5047101;28;20032;-78
2022/11/14 12:59:05;;;;;;;23.70;14.57;;;13.40;99.90;;;;;;5047395;28;20501;-77
2022/11/14 13:01:52;;;;;;;24.77;16.25;;;13.40;99.90;;;;;;5047221;28;20025;-76
2022/11/14 13:04:29;;;;;;;28.98;15.88;;;13.40;99.90;;;;;;5065291;28;20055;-78
2022/11/14 13:07:25;;;;;;;22.33;16.95;;;13.40;99.90;;;;;;5066786;28;20536;-78
2022/11/14 13:10:26;;;;;;;24.38;17.48;;;13.40;99.90;;;;;;5050476;28;20033;-77
2022/11/14 13:22:13;;;;;;;23.35;16.42;;;13.00;99.90;;;;;;5068916;28;20039;-79
2022/11/14 13:24:57;;;;;;;;;;;12.90;99.90;;;;;;5068667;28;20025;-76